Time;durP1;ratioP1;P1;durP2;ratioP2;P2;SDS_P1;SDS_P2;PMS_P1;PMS_P2;Temp;Humidity;BMP_temperature;BMP_pressure;BME280_temperature;BME280_humidity;BME280_pressure;Samples;Min_cycle;Max_cycle;Signal;HPM_P1;HPM_P2
2022/04/22 00:01:28;;;;;;;97.75;49.25;;;9.10;99.90;;;;;;5090046;28;20805;-51
2022/04/22 00:03:54;;;;;;;95.30;48.50;;;9.10;99.90;;;;;;5090680;28;20089;-50
2022/04/22 00:06:20;;;;;;;92.68;49.25;;;9.10;99.90;;;;;;5086599;28;20084;-52
2022/04/22 00:08:46;;;;;;;103.80;52.00;;;9.00;99.90;;;;;;5085127;28;20175;-51
2022/04/22 00:11:30;;;;;;;99.70;50.30;;;9.00;99.90;;;;;;5063790;28;20036;-53
2022/04/22 00:13:58;;;;;;;91.05;49.00;;;9.00;99.90;;;;;;5078745;28;20050;-53
2022/04/22 00:16:25;;;;;;;92.57;47.67;;;9.00;99.90;;;;;;5077865;28;20032;-52
2022/04/22 00:18:51;;;;;;;94.75;49.72;;;9.00;99.90;;;;;;5081013;28;20144;-52
2022/04/22 00:21:17;;;;;;;110.05;54.05;;;9.00;99.90;;;;;;5077179;28;20399;-52
2022/04/22 00:23:42;;;;;;;91.15;49.88;;;9.10;99.90;;;;;;5090362;28;20475;-52
2022/04/22 00:26:08;;;;;;;102.07;50.60;;;9.10;99.90;;;;;;5081075;28;20131;-51
2022/04/22 00:28:34;;;;;;;93.25;48.88;;;9.10;99.90;;;;;;5064095;28;20020;-52
2022/04/22 00:31:00;;;;;;;87.65;46.47;;;9.10;99.90;;;;;;5080272;28;20039;-52
2022/04/22 00:33:26;;;;;;;79.97;46.42;;;9.10;99.90;;;;;;5080057;28;20376;-53
2022/04/22 00:35:52;;;;;;;96.63;49.63;;;9.00;99.90;;;;;;5061256;28;20058;-52
2022/04/22 00:38:17;;;;;;;101.88;50.90;;;8.90;99.90;;;;;;5081239;28;20024;-54
2022/04/22 00:40:43;;;;;;;93.43;48.22;;;8.80;99.90;;;;;;5080841;28;20028;-52
2022/04/22 00:43:18;;;;;;;82.95;46.75;;;8.80;99.90;;;;;;5079439;28;20390;-51
2022/04/22 00:45:45;;;;;;;88.15;47.55;;;8.70;99.90;;;;;;5081434;28;20031;-50
2022/04/22 00:48:11;;;;;;;90.07;48.80;;;8.60;99.90;;;;;;5063388;28;20051;-51
2022/04/22 00:50:38;;;;;;;83.60;48.15;;;8.60;99.90;;;;;;5078927;28;20055;-52
2022/04/22 00:53:05;;;;;;;80.63;46.45;;;8.60;99.90;;;;;;5080553;28;20047;-51
2022/04/22 00:55:31;;;;;;;85.13;48.25;;;8.50;99.90;;;;;;5081164;28;20511;-51
2022/04/22 00:57:58;;;;;;;75.80;46.15;;;8.50;99.90;;;;;;5076605;28;20033;-52
2022/04/22 01:00:24;;;;;;;;;;;8.50;99.90;;;;;;5080479;28;20754;-53
2022/04/22 01:02:50;;;;;;;76.97;42.17;;;8.50;99.90;;;;;;5081153;28;19920;-50
2022/04/22 01:10:45;;;;;;;89.60;51.15;;;8.60;99.90;;;;;;5090201;28;20392;-52
2022/04/22 01:13:10;;;;;;;82.40;47.92;;;8.70;99.90;;;;;;5090371;28;20111;-52
2022/04/22 01:15:36;;;;;;;84.50;48.88;;;8.70;99.90;;;;;;5090215;28;20171;-51
2022/04/22 01:18:02;;;;;;;81.60;48.03;;;8.60;99.90;;;;;;5090474;28;20032;-54
2022/04/22 01:20:28;;;;;;;85.50;46.85;;;8.70;99.90;;;;;;5090295;28;20440;-51
2022/04/22 01:22:54;;;;;;;80.10;47.13;;;8.80;99.90;;;;;;5089891;28;20090;-52
2022/04/22 01:25:20;;;;;;;82.00;47.80;;;8.80;99.90;;;;;;5090197;28;20020;-53
2022/04/22 01:27:51;;;;;;;82.18;44.55;;;8.80;99.90;;;;;;5090240;28;20036;-50
2022/04/22 01:30:21;;;;;;;86.03;46.00;;;8.80;99.90;;;;;;5090138;28;20062;-51
2022/04/22 01:32:50;;;;;;;80.88;44.80;;;8.80;99.90;;;;;;5089848;28;20020;-50
2022/04/22 01:35:15;;;;;;;78.20;44.03;;;8.70;99.90;;;;;;5090088;28;20039;-52
2022/04/22 01:37:43;;;;;;;80.13;45.63;;;8.70;99.90;;;;;;5089968;28;20028;-51
2022/04/22 01:40:09;;;;;;;87.30;47.88;;;8.70;99.90;;;;;;5089826;28;20028;-51
2022/04/22 01:42:35;;;;;;;86.70;46.30;;;8.70;99.90;;;;;;5089565;28;20043;-52
2022/04/22 01:45:01;;;;;;;84.03;44.65;;;8.70;99.90;;;;;;5089670;28;20024;-51
2022/04/22 01:47:26;;;;;;;85.32;46.95;;;8.70;99.90;;;;;;5089938;28;20061;-52
2022/04/22 01:49:52;;;;;;;83.18;45.22;;;8.70;99.90;;;;;;5089499;28;20055;-52
2022/04/22 01:52:19;;;;;;;88.68;48.45;;;8.70;99.90;;;;;;5089595;28;20059;-52
2022/04/22 01:54:44;;;;;;;87.93;47.30;;;8.60;99.90;;;;;;5089819;28;20028;-53
2022/04/22 01:57:10;;;;;;;90.00;49.40;;;8.60;99.90;;;;;;5089730;28;20059;-52
2022/04/22 01:59:36;;;;;;;87.63;47.67;;;8.70;99.90;;;;;;5089556;28;20043;-51
2022/04/22 02:02:01;;;;;;;88.18;49.08;;;8.70;99.90;;;;;;5088455;28;20036;-52
2022/04/22 02:04:27;;;;;;;90.57;51.85;;;8.70;99.90;;;;;;5089483;28;20024;-52
2022/04/22 02:06:53;;;;;;;84.05;50.10;;;8.70;99.90;;;;;;5089117;28;20131;-53
2022/04/22 02:09:19;;;;;;;88.68;48.88;;;8.70;99.90;;;;;;5089591;28;20024;-51
2022/04/22 02:11:44;;;;;;;91.13;51.08;;;8.80;99.90;;;;;;5086659;28;20487;-52
2022/04/22 02:14:11;;;;;;;91.90;51.03;;;8.70;99.90;;;;;;5082663;28;20092;-50
2022/04/22 02:16:37;;;;;;;97.22;52.85;;;8.70;99.90;;;;;;5089059;28;20039;-51
2022/04/22 02:19:02;;;;;;;98.90;51.25;;;8.70;99.90;;;;;;5088969;28;20499;-51
2022/04/22 02:21:28;;;;;;;90.88;50.60;;;8.70;99.90;;;;;;5088846;28;20110;-51
2022/04/22 02:23:54;;;;;;;94.93;50.33;;;8.70;99.90;;;;;;5089034;28;20127;-51
2022/04/22 02:26:20;;;;;;;89.35;50.05;;;8.70;99.90;;;;;;5088652;28;20512;-54
2022/04/22 02:28:45;;;;;;;83.93;48.83;;;8.70;99.90;;;;;;5088979;28;20028;-52
2022/04/22 02:31:12;;;;;;;92.22;51.40;;;8.60;99.90;;;;;;5088495;28;20024;-52
2022/04/22 02:33:40;;;;;;;91.13;51.73;;;8.60;99.90;;;;;;5089106;28;20035;-50
2022/04/22 02:36:06;;;;;;;98.25;54.47;;;8.60;99.90;;;;;;5088745;28;20262;-52
2022/04/22 02:38:33;;;;;;;91.80;51.65;;;8.60;99.90;;;;;;5088968;28;20024;-52
2022/04/22 02:46:28;;;;;;;96.32;52.92;;;8.40;99.90;;;;;;5089064;28;20115;-50
2022/04/22 02:49:00;;;;;;;84.10;48.85;;;8.40;99.90;;;;;;5088878;28;20107;-51
2022/04/22 02:51:27;;;;;;;91.80;50.95;;;8.50;99.90;;;;;;5088636;28;20027;-52
2022/04/22 02:53:53;;;;;;;90.57;51.73;;;8.40;99.90;;;;;;5088824;28;20020;-52
2022/04/22 02:56:21;;;;;;;95.17;52.47;;;8.40;99.90;;;;;;5088939;28;20089;-52
2022/04/22 02:58:48;;;;;;;103.80;54.28;;;8.40;99.90;;;;;;5088517;28;20298;-52
2022/04/22 03:01:17;;;;;;;96.10;52.75;;;8.40;99.90;;;;;;5088621;28;20071;-53
2022/04/22 03:03:46;;;;;;;88.70;50.00;;;8.40;99.90;;;;;;5088921;28;20028;-51
2022/04/22 03:06:12;;;;;;;101.32;52.22;;;8.40;99.90;;;;;;5088528;28;20108;-50
2022/04/22 03:08:38;;;;;;;101.20;55.95;;;8.40;99.90;;;;;;5088869;28;20043;-52
2022/04/22 03:11:04;;;;;;;97.03;52.25;;;8.50;99.90;;;;;;5088051;28;20028;-52
2022/04/22 03:13:30;;;;;;;102.28;53.22;;;8.60;99.90;;;;;;5088345;28;20131;-51
2022/04/22 03:15:58;;;;;;;101.40;52.93;;;8.60;99.90;;;;;;5093062;28;20134;-51
2022/04/22 03:18:24;;;;;;;101.45;55.42;;;8.50;99.90;;;;;;5092442;28;20506;-51
2022/04/22 03:20:49;;;;;;;102.40;54.55;;;8.60;99.90;;;;;;5092299;28;20059;-53
2022/04/22 03:23:15;;;;;;;105.75;54.47;;;8.70;99.90;;;;;;5092681;28;20363;-52
2022/04/22 03:25:41;;;;;;;91.43;52.50;;;8.60;99.90;;;;;;5092401;28;20487;-50
2022/04/22 03:28:07;;;;;;;98.72;53.33;;;8.60;99.90;;;;;;5092697;28;20388;-53
2022/04/22 03:30:37;;;;;;;97.80;54.17;;;8.50;99.90;;;;;;5091973;28;20382;-51
2022/04/22 03:33:03;;;;;;;102.85;57.92;;;8.50;99.90;;;;;;5092684;28;20069;-51
2022/04/22 03:35:29;;;;;;;95.82;53.40;;;8.50;99.90;;;;;;5092326;28;20047;-52
2022/04/22 03:37:56;;;;;;;98.50;54.42;;;8.40;99.90;;;;;;5092205;28;20429;-50
2022/04/22 03:40:21;;;;;;;103.65;53.38;;;8.40;99.90;;;;;;5092001;28;20032;-51
2022/04/22 03:42:47;;;;;;;97.22;51.85;;;8.40;99.90;;;;;;5092064;28;20052;-51
2022/04/22 03:45:13;;;;;;;89.50;51.80;;;8.40;99.90;;;;;;5092060;28;20024;-52
2022/04/22 03:47:39;;;;;;;95.90;53.20;;;8.40;99.90;;;;;;5092136;28;20035;-52
2022/04/22 03:50:05;;;;;;;96.78;54.17;;;8.40;99.90;;;;;;5091884;28;20353;-52
2022/04/22 03:52:31;;;;;;;107.93;59.13;;;8.40;99.90;;;;;;5091960;28;20020;-51
2022/04/22 03:54:57;;;;;;;104.30;56.25;;;8.30;99.90;;;;;;5091921;28;20024;-52
2022/04/22 04:00:15;;;;;;;105.57;56.95;;;8.30;99.90;;;;;;5060201;28;20042;-51
2022/04/22 04:02:40;;;;;;;100.45;56.15;;;8.40;99.90;;;;;;5091801;28;20040;-50
2022/04/22 04:05:06;;;;;;;101.60;56.47;;;8.40;99.90;;;;;;5091400;28;20392;-52
2022/04/22 04:07:32;;;;;;;106.10;59.60;;;8.40;99.90;;;;;;5091344;28;20505;-50
2022/04/22 04:18:10;;;;;;;112.32;61.42;;;8.30;99.90;;;;;;5091342;28;20739;-50
2022/04/22 04:23:20;;;;;;;116.90;62.05;;;8.30;99.90;;;;;;5091911;28;20047;-52
2022/04/22 04:25:47;;;;;;;113.45;61.08;;;8.30;99.90;;;;;;5090404;28;20017;-51
2022/04/22 04:28:15;;;;;;;116.30;61.45;;;8.30;99.90;;;;;;5091241;28;20027;-52
2022/04/22 04:30:42;;;;;;;106.60;57.90;;;8.30;99.90;;;;;;5090597;28;20032;-52
2022/04/22 04:33:08;;;;;;;;;;;8.40;99.90;;;;;;5091712;28;20093;-50
2022/04/22 04:35:35;;;;;;;102.35;58.15;;;8.40;99.90;;;;;;5091113;28;19908;-51
2022/04/22 04:38:01;;;;;;;100.73;55.47;;;8.40;99.90;;;;;;5091228;28;20411;-50
2022/04/22 04:40:27;;;;;;;91.90;52.50;;;8.50;99.90;;;;;;5091189;28;20798;-51
2022/04/22 04:42:53;;;;;;;97.63;53.97;;;8.50;99.90;;;;;;5090593;28;20028;-52
2022/04/22 04:45:19;;;;;;;89.68;51.00;;;8.60;99.90;;;;;;5090801;28;20031;-52
2022/04/22 04:47:45;;;;;;;94.75;54.05;;;8.60;99.90;;;;;;5091341;28;20048;-52
2022/04/22 04:50:12;;;;;;;98.03;54.05;;;8.70;99.90;;;;;;5090661;28;20053;-52
2022/04/22 04:52:38;;;;;;;98.82;51.03;;;8.70;99.90;;;;;;5090721;28;20081;-52
2022/04/22 04:55:06;;;;;;;87.57;47.88;;;8.60;99.90;;;;;;5090285;28;20467;-53
2022/04/22 04:57:32;;;;;;;85.45;48.08;;;8.60;99.90;;;;;;5090381;28;20634;-51
2022/04/22 04:59:57;;;;;;;78.85;48.03;;;8.70;99.90;;;;;;5090103;28;20139;-53
2022/04/22 05:02:23;;;;;;;81.10;44.25;;;8.60;99.90;;;;;;5090736;28;20125;-52
2022/04/22 05:04:49;;;;;;;76.10;45.92;;;8.70;99.90;;;;;;5090439;28;20039;-51
2022/04/22 05:07:14;;;;;;;85.88;45.95;;;8.70;99.90;;;;;;5090698;28;20060;-52
2022/04/22 05:09:40;;;;;;;74.32;44.53;;;8.80;99.90;;;;;;5090217;28;20031;-52
2022/04/22 05:12:06;;;;;;;82.68;45.28;;;8.80;99.90;;;;;;5090373;28;20035;-53
2022/04/22 05:14:32;;;;;;;81.93;44.80;;;8.90;99.90;;;;;;5090390;28;20032;-53
2022/04/22 05:16:58;;;;;;;81.93;44.70;;;8.90;99.90;;;;;;5090235;28;20057;-51
2022/04/22 05:19:23;;;;;;;81.75;44.17;;;9.00;99.90;;;;;;5071681;28;20056;-52
2022/04/22 05:21:49;;;;;;;78.82;43.17;;;9.00;99.90;;;;;;5090033;28;20032;-51
2022/04/22 05:24:15;;;;;;;80.35;44.50;;;9.10;99.90;;;;;;5089978;28;20033;-51
2022/04/22 05:26:41;;;;;;;77.45;43.47;;;9.10;99.90;;;;;;5089953;28;20020;-52
2022/04/22 05:32:36;;;;;;;79.20;46.13;;;9.20;99.90;;;;;;5090209;28;20047;-51
2022/04/22 05:34:37;;;;;;;86.35;45.55;;;9.20;99.90;;;;;;5090499;28;20051;-52
2022/04/22 05:37:03;;;;;;;79.88;46.78;;;9.20;99.90;;;;;;5089785;28;20479;-52
2022/04/22 05:39:28;;;;;;;84.28;46.58;;;9.20;99.90;;;;;;5089622;28;20174;-52
2022/04/22 05:41:54;;;;;;;86.30;46.78;;;9.30;99.90;;;;;;5089872;28;20036;-52
2022/04/22 05:44:20;;;;;;;79.75;44.70;;;9.30;99.90;;;;;;5089615;28;20027;-52
2022/04/22 05:46:45;;;;;;;79.68;44.88;;;9.30;99.90;;;;;;5089233;28;20028;-53
2022/04/22 05:49:11;;;;;;;72.60;41.78;;;9.40;99.90;;;;;;5089861;28;20105;-53
2022/04/22 05:51:37;;;;;;;75.90;42.83;;;9.40;99.90;;;;;;5071449;28;20032;-53
2022/04/22 05:54:02;;;;;;;74.72;43.40;;;9.40;99.90;;;;;;5089700;28;20032;-51
2022/04/22 05:56:29;;;;;;;81.88;43.67;;;9.50;99.90;;;;;;5089377;28;20486;-52
2022/04/22 05:58:55;;;;;;;80.32;42.35;;;9.50;99.90;;;;;;5089319;28;20412;-52
2022/04/22 06:01:22;;;;;;;77.43;41.83;;;9.50;99.90;;;;;;5089225;28;20111;-53
2022/04/22 06:03:48;;;;;;;80.38;43.00;;;9.60;99.90;;;;;;5089415;28;20276;-52
2022/04/22 06:06:14;;;;;;;87.22;44.33;;;9.70;99.90;;;;;;5089177;28;20028;-50
2022/04/22 06:11:29;;;;;;;73.28;41.90;;;9.80;99.90;;;;;;5058260;28;20086;-51
2022/04/22 06:13:55;;;;;;;77.85;42.50;;;9.90;99.90;;;;;;5086533;28;20028;-51
2022/04/22 06:16:21;;;;;;;78.75;41.67;;;9.90;99.90;;;;;;5089188;28;20051;-51
2022/04/22 06:18:47;;;;;;;74.63;40.75;;;10.00;99.90;;;;;;5088639;28;20051;-52
2022/04/22 06:21:13;;;;;;;71.90;38.50;;;10.00;99.90;;;;;;5088899;28;20446;-52
2022/04/22 06:23:38;;;;;;;74.75;39.03;;;10.20;99.90;;;;;;5089020;28;20028;-50
2022/04/22 06:26:04;;;;;;;70.03;37.90;;;10.30;99.90;;;;;;5088863;28;20066;-50
2022/04/22 06:28:30;;;;;;;64.80;36.58;;;10.50;99.90;;;;;;5089299;28;20460;-56
2022/04/22 06:30:56;;;;;;;60.88;34.30;;;10.60;99.90;;;;;;5070649;28;20028;-52
2022/04/22 06:33:22;;;;;;;53.97;31.23;;;10.80;99.90;;;;;;5088987;28;20035;-52
2022/04/22 06:35:48;;;;;;;54.30;31.27;;;10.90;99.90;;;;;;5088548;28;20474;-52
2022/04/22 06:38:18;;;;;;;46.20;26.67;;;11.00;99.90;;;;;;5089366;28;20032;-51
2022/04/22 06:46:16;;;;;;;44.72;26.35;;;11.10;99.90;;;;;;5088932;28;20043;-52
2022/04/22 06:48:43;;;;;;;46.30;26.35;;;11.00;99.90;;;;;;5088528;28;20451;-51
2022/04/22 06:51:09;;;;;;;37.42;22.80;;;11.10;99.90;;;;;;5088718;28;20422;-51
2022/04/22 06:53:36;;;;;;;44.25;24.65;;;11.00;99.90;;;;;;5088800;28;20027;-52
2022/04/22 06:56:05;;;;;;;43.90;24.23;;;11.10;99.90;;;;;;5088553;28;20043;-51
2022/04/22 06:58:32;;;;;;;43.95;23.67;;;11.10;99.90;;;;;;5088303;28;20043;-50
2022/04/22 07:00:59;;;;;;;37.65;23.92;;;11.20;99.90;;;;;;5088186;28;20031;-51
2022/04/22 07:03:25;;;;;;;36.00;21.52;;;11.20;99.90;;;;;;5088612;28;20073;-50
2022/04/22 07:05:51;;;;;;;36.80;20.00;;;11.20;99.90;;;;;;5088529;28;20020;-51
2022/04/22 07:08:19;;;;;;;31.80;18.60;;;11.20;99.90;;;;;;5088761;28;20055;-51
2022/04/22 07:10:47;;;;;;;34.08;19.88;;;11.10;99.90;;;;;;5088343;28;20500;-50
2022/04/22 07:13:14;;;;;;;26.83;17.17;;;11.20;99.90;;;;;;5088277;28;20028;-51
2022/04/22 07:15:40;;;;;;;27.33;16.98;;;11.20;99.90;;;;;;5088647;28;20048;-49
2022/04/22 07:18:07;;;;;;;33.70;19.03;;;11.20;99.90;;;;;;5088664;28;20032;-50
2022/04/22 07:20:33;;;;;;;30.27;18.42;;;11.10;99.90;;;;;;5088219;28;20027;-50
2022/04/22 07:22:59;;;;;;;32.85;20.23;;;11.20;99.90;;;;;;5088314;28;20042;-50
2022/04/22 07:25:26;;;;;;;32.42;18.45;;;11.20;99.90;;;;;;5070187;28;20020;-52
2022/04/22 07:27:52;;;;;;;31.10;16.63;;;11.20;99.90;;;;;;5088666;28;20044;-51
2022/04/22 07:30:20;;;;;;;28.85;16.77;;;11.20;99.90;;;;;;5088190;28;20097;-53
2022/04/22 07:32:48;;;;;;;27.88;17.48;;;11.30;99.90;;;;;;5085606;28;20028;-51
2022/04/22 07:35:15;;;;;;;26.27;16.38;;;11.30;99.90;;;;;;5087763;28;20020;-51
2022/04/22 07:37:41;;;;;;;;;;;11.20;99.90;;;;;;5088918;28;20028;-51
2022/04/22 07:40:08;;;;;;;34.70;18.20;;;11.10;99.90;;;;;;5088009;28;19908;-52
2022/04/22 07:42:35;;;;;;;25.83;15.02;;;11.20;99.90;;;;;;5088338;28;20046;-51
2022/04/22 07:47:48;;;;;;;23.77;15.10;;;11.20;99.90;;;;;;5088329;28;20391;-52
2022/04/22 07:50:17;;;;;;;26.38;16.30;;;11.20;99.90;;;;;;5087783;28;20444;-51
2022/04/22 07:52:44;;;;;;;29.65;15.85;;;11.30;99.90;;;;;;5088026;28;20097;-51
2022/04/22 07:55:11;;;;;;;27.27;15.52;;;11.30;99.90;;;;;;5087627;28;20032;-50
2022/04/22 07:57:37;;;;;;;28.60;15.68;;;11.40;99.90;;;;;;5088274;28;20081;-52
2022/04/22 08:00:04;;;;;;;26.30;15.32;;;11.40;99.90;;;;;;5088185;28;20020;-53
2022/04/22 08:02:29;;;;;;;24.40;15.85;;;11.40;99.90;;;;;;5091435;28;20110;-50
2022/04/22 08:04:55;;;;;;;33.83;15.82;;;11.50;99.90;;;;;;5091607;28;20088;-52
2022/04/22 08:07:21;;;;;;;27.20;16.20;;;11.60;99.90;;;;;;5091707;28;20083;-51
2022/04/22 08:09:47;;;;;;;31.88;16.02;;;11.60;99.90;;;;;;5091650;28;20039;-53
2022/04/22 08:12:13;;;;;;;29.42;15.93;;;11.60;99.90;;;;;;5091465;28;20016;-50
2022/04/22 08:14:40;;;;;;;24.35;16.23;;;11.70;99.90;;;;;;5091691;28;20582;-51
2022/04/22 08:17:07;;;;;;;28.52;15.00;;;11.70;99.90;;;;;;5091519;28;20062;-50
2022/04/22 08:19:33;;;;;;;25.30;15.37;;;11.80;99.90;;;;;;5090985;28;20140;-51
2022/04/22 08:21:59;;;;;;;30.73;17.38;;;11.90;99.90;;;;;;5091286;28;20637;-50
2022/04/22 08:24:25;;;;;;;22.50;15.45;;;11.90;99.90;;;;;;5073176;28;20028;-51
2022/04/22 08:26:51;;;;;;;28.05;16.35;;;12.10;99.90;;;;;;5091352;28;20116;-51
2022/04/22 08:29:17;;;;;;;25.23;16.37;;;12.20;99.90;;;;;;5091494;28;20398;-50
2022/04/22 08:31:45;;;;;;;27.50;17.35;;;12.30;99.90;;;;;;5090795;28;20464;-50
2022/04/22 08:34:10;;;;;;;25.50;16.25;;;12.50;99.90;;;;;;5088118;28;20056;-50
2022/04/22 08:36:36;;;;;;;21.77;14.15;;;12.60;99.90;;;;;;5091054;28;20082;-51
2022/04/22 08:39:04;;;;;;;28.38;16.33;;;12.80;99.90;;;;;;5091119;28;20542;-50
2022/04/22 08:41:34;;;;;;;24.63;16.52;;;12.80;99.90;;;;;;5072353;28;20067;-52
2022/04/22 08:44:01;;;;;;;30.10;17.45;;;12.80;99.90;;;;;;5091338;28;20024;-49
2022/04/22 08:51:56;;;;;;;29.05;17.58;;;13.20;99.90;;;;;;5090619;28;20035;-50
2022/04/22 08:54:24;;;;;;;27.88;17.13;;;13.30;99.90;;;;;;5091072;28;20036;-51
2022/04/22 08:56:52;;;;;;;26.23;16.05;;;13.40;99.90;;;;;;5090496;28;20052;-49
2022/04/22 08:59:18;;;;;;;28.27;17.00;;;13.50;99.90;;;;;;5090418;28;20056;-52
2022/04/22 09:01:44;;;;;;;27.17;18.90;;;13.50;99.90;;;;;;5090150;28;20039;-50
2022/04/22 09:04:10;;;;;;;27.38;17.00;;;13.50;99.90;;;;;;5090461;28;20032;-50
2022/04/22 09:06:37;;;;;;;24.63;16.00;;;13.50;99.90;;;;;;5090543;28;20031;-51
2022/04/22 09:09:04;;;;;;;28.33;16.83;;;13.50;99.90;;;;;;5090423;28;20479;-51
2022/04/22 09:11:30;;;;;;;30.40;16.77;;;13.60;99.90;;;;;;5089466;28;20041;-50
2022/04/22 09:14:00;;;;;;;25.25;16.42;;;13.70;99.90;;;;;;5090465;28;20028;-51
2022/04/22 09:16:27;;;;;;;28.90;17.45;;;13.80;99.90;;;;;;5072046;28;20024;-50
2022/04/22 09:19:03;;;;;;;26.92;16.25;;;13.70;99.90;;;;;;5090201;28;20127;-51
2022/04/22 09:21:29;;;;;;;38.00;17.25;;;13.80;99.90;;;;;;5089837;28;20043;-52
2022/04/22 09:23:56;;;;;;;30.92;18.02;;;13.70;99.90;;;;;;5089153;28;20032;-51
2022/04/22 09:26:26;;;;;;;29.25;17.05;;;13.70;99.90;;;;;;5088372;28;20074;-52
2022/04/22 09:28:59;;;;;;;31.77;16.00;;;13.70;99.90;;;;;;5088416;28;20047;-50
2022/04/22 09:31:25;;;;;;;27.45;16.55;;;13.80;99.90;;;;;;5089045;28;20089;-49
2022/04/22 09:33:51;;;;;;;31.35;18.80;;;13.90;99.90;;;;;;5086415;28;20418;-50
2022/04/22 09:44:59;;;;;;;34.78;22.60;;;14.10;99.90;;;;;;5088818;28;20035;-50
2022/04/22 09:47:27;;;;;;;;;;;14.10;99.90;;;;;;5077348;28;20092;-52
2022/04/22 09:49:53;;;;;;;35.63;22.65;;;14.00;99.90;;;;;;5079721;28;19908;-49
2022/04/22 09:52:34;;;;;;;40.10;23.63;;;14.00;99.90;;;;;;5078274;28;20539;-50
2022/04/22 09:55:06;;;;;;;41.22;23.73;;;14.10;99.90;;;;;;5088486;28;20028;-51
2022/04/22 09:57:57;;;;;;;43.45;22.98;;;14.10;99.90;;;;;;5089424;28;20036;-51
2022/04/22 10:00:29;;;;;;;35.55;22.85;;;14.30;99.90;;;;;;5088616;28;20506;-50
2022/04/22 10:02:55;;;;;;;45.13;24.80;;;14.30;99.90;;;;;;5081636;28;20557;-50
2022/04/22 10:05:26;;;;;;;42.60;25.45;;;14.20;99.90;;;;;;5071399;28;20028;-50
2022/04/22 10:07:56;;;;;;;47.28;26.77;;;14.20;99.90;;;;;;5080322;28;20032;-51
2022/04/22 10:10:29;;;;;;;44.78;26.08;;;14.10;99.90;;;;;;5073792;28;20028;-50
2022/04/22 10:12:59;;;;;;;43.97;25.77;;;14.10;99.90;;;;;;5083191;28;20445;-50
2022/04/22 10:15:29;;;;;;;51.88;26.27;;;14.10;99.90;;;;;;5085735;28;20039;-51
2022/04/22 10:17:56;;;;;;;46.50;26.10;;;14.10;99.90;;;;;;5085637;28;20077;-53
2022/04/22 10:20:26;;;;;;;42.67;26.03;;;14.10;99.90;;;;;;5079394;28;20547;-51
2022/04/22 10:22:52;;;;;;;39.67;25.67;;;14.00;99.90;;;;;;5088225;28;21103;-51
2022/04/22 10:25:18;;;;;;;43.35;26.77;;;13.90;99.90;;;;;;5071100;28;20017;-51
2022/04/22 10:27:45;;;;;;;41.72;24.95;;;13.80;99.90;;;;;;5076754;28;20032;-51
2022/04/22 10:30:13;;;;;;;45.92;24.85;;;13.70;99.90;;;;;;5068630;28;20032;-51
2022/04/22 10:32:41;;;;;;;44.38;24.98;;;13.70;99.90;;;;;;5084073;28;20048;-52
2022/04/22 10:35:07;;;;;;;49.45;26.02;;;13.60;99.90;;;;;;5085289;28;20028;-51
2022/04/22 10:37:37;;;;;;;48.47;25.75;;;13.70;99.90;;;;;;5087462;28;20064;-51
2022/04/22 10:40:04;;;;;;;45.88;26.65;;;13.60;99.90;;;;;;5356139;22;20046;-50
2022/04/22 10:42:30;;;;;;;49.70;27.53;;;13.60;99.90;;;;;;5042554;28;20403;-49
2022/04/22 10:47:47;;;;;;;52.95;30.15;;;13.40;99.90;;;;;;5037574;28;20051;-52
2022/04/22 10:50:32;;;;;;;51.83;29.00;;;13.20;99.90;;;;;;5038263;28;20030;-51
2022/04/22 10:53:09;;;;;;;51.85;29.60;;;13.20;99.90;;;;;;5047851;28;20049;-50
2022/04/22 10:55:39;;;;;;;48.83;27.77;;;13.10;99.90;;;;;;5035878;28;20033;-52
2022/04/22 10:58:14;;;;;;;45.28;26.50;;;13.10;99.90;;;;;;5044951;28;20025;-52
2022/04/22 11:00:45;;;;;;;49.25;28.42;;;13.00;99.90;;;;;;5038323;28;20032;-52
2022/04/22 11:03:37;;;;;;;49.38;27.63;;;13.00;99.90;;;;;;5033161;28;20036;-51
2022/04/22 11:06:07;;;;;;;53.35;26.85;;;13.10;99.90;;;;;;5043444;28;20125;-50
2022/04/22 11:08:41;;;;;;;52.30;27.73;;;13.10;99.90;;;;;;5042104;28;20030;-51
2022/04/22 11:11:33;;;;;;;48.97;28.08;;;13.00;99.90;;;;;;5031291;28;20017;-52
2022/04/22 11:14:20;;;;;;;48.97;28.42;;;13.20;99.90;;;;;;5032158;28;20095;-57
2022/04/22 11:16:46;;;;;;;51.40;29.33;;;13.20;99.90;;;;;;5015779;28;20053;-53
2022/04/22 11:19:25;;;;;;;51.72;28.33;;;13.10;99.90;;;;;;5031521;28;20064;-52
2022/04/22 11:21:55;;;;;;;54.53;27.90;;;13.10;99.90;;;;;;5043604;28;20498;-52
2022/04/22 11:24:24;;;;;;;51.88;27.75;;;13.20;99.90;;;;;;5019605;28;20132;-50
2022/04/22 11:26:52;;;;;;;52.47;29.67;;;13.20;99.90;;;;;;5040140;28;20013;-51
2022/04/22 11:29:17;;;;;;;52.45;28.70;;;13.30;99.90;;;;;;5042317;28;20034;-49
2022/04/22 11:31:56;;;;;;;52.35;28.27;;;13.60;99.90;;;;;;5039586;28;20382;-51
2022/04/22 11:34:55;;;;;;;51.03;25.65;;;13.80;99.90;;;;;;5038347;28;20075;-50
2022/04/22 11:37:22;;;;;;;52.70;24.83;;;14.10;99.90;;;;;;5042612;28;20362;-51
2022/04/22 11:39:49;;;;;;;43.25;24.15;;;14.10;99.90;;;;;;5040438;28;20087;-50
2022/04/22 11:42:17;;;;;;;51.97;24.70;;;14.20;99.90;;;;;;5040119;28;20049;-53
2022/04/22 11:45:02;;;;;;;45.03;24.40;;;14.30;99.90;;;;;;5031245;28;20528;-51
2022/04/22 11:47:28;;;;;;;44.80;23.92;;;14.30;99.90;;;;;;5051609;28;20025;-52
2022/04/22 11:49:57;;;;;;;43.08;23.75;;;14.50;99.90;;;;;;5046185;28;20070;-51
2022/04/22 11:52:23;;;;;;;48.53;25.35;;;14.60;99.90;;;;;;5042047;28;20040;-51
2022/04/22 11:54:49;;;;;;;42.55;24.83;;;14.50;99.90;;;;;;5040912;28;20543;-52
2022/04/22 11:57:19;;;;;;;41.63;23.13;;;14.50;99.90;;;;;;5040394;28;20120;-52
2022/04/22 12:05:32;;;;;;;34.92;21.63;;;14.80;99.90;;;;;;5024255;28;20081;-51
2022/04/22 12:05:32;;;;;;;30.95;17.73;;;15.30;99.90;;;;;;4985275;28;20070;-51
2022/04/22 12:08:07;;;;;;;28.80;16.48;;;15.30;99.90;;;;;;5037799;28;20120;-53
2022/04/22 12:10:34;;;;;;;29.67;17.52;;;15.00;99.90;;;;;;5038775;28;20030;-52
2022/04/22 12:13:01;;;;;;;27.60;18.08;;;15.00;99.90;;;;;;5041313;28;20078;-52
2022/04/22 12:15:27;;;;;;;;;;;15.10;99.90;;;;;;5040844;28;20037;-52
2022/04/22 12:17:53;;;;;;;33.70;18.48;;;15.00;99.90;;;;;;5040234;28;19909;-52
2022/04/22 12:20:21;;;;;;;30.75;18.13;;;14.80;99.90;;;;;;5041417;28;20029;-52
2022/04/22 12:22:49;;;;;;;29.13;17.48;;;14.80;99.90;;;;;;5038631;28;20094;-52
2022/04/22 12:25:19;;;;;;;37.28;18.20;;;14.60;99.90;;;;;;5040323;28;20016;-51
2022/04/22 12:28:08;;;;;;;29.17;16.63;;;14.60;99.90;;;;;;5038760;28;20108;-51
2022/04/22 12:30:39;;;;;;;25.65;15.93;;;14.60;99.90;;;;;;5037036;28;20091;-52
2022/04/22 12:33:05;;;;;;;27.73;16.70;;;14.50;99.90;;;;;;5030546;28;20030;-52
2022/04/22 12:35:32;;;;;;;23.45;15.23;;;14.40;99.90;;;;;;5030326;28;20057;-51
2022/04/22 12:38:03;;;;;;;25.60;15.05;;;14.40;99.90;;;;;;5034765;28;20034;-53
2022/04/22 12:40:44;;;;;;;30.67;15.07;;;14.60;99.90;;;;;;5040366;28;20136;-52
2022/04/22 12:43:29;;;;;;;21.45;12.65;;;14.40;99.90;;;;;;5040178;28;20594;-51
2022/04/22 12:52:29;;;;;;;22.75;11.82;;;14.20;99.90;;;;;;5039834;28;20044;-53
2022/04/22 12:55:08;;;;;;;20.80;12.63;;;14.20;99.90;;;;;;5037589;28;20436;-52
2022/04/22 12:57:36;;;;;;;23.33;13.20;;;14.10;99.90;;;;;;5038149;28;20503;-51
2022/04/22 13:00:17;;;;;;;27.58;14.65;;;14.00;99.90;;;;;;5038315;28;20039;-51
2022/04/22 13:02:44;;;;;;;29.38;14.93;;;14.10;99.90;;;;;;5048538;28;20041;-52
2022/04/22 13:05:20;;;;;;;20.90;12.70;;;14.00;99.90;;;;;;5049711;28;20025;-51
2022/04/22 13:07:50;;;;;;;23.40;12.65;;;14.10;99.90;;;;;;5052635;28;20048;-54
2022/04/22 13:10:18;;;;;;;18.13;11.25;;;14.10;99.90;;;;;;5069547;28;20024;-51
2022/04/22 13:12:45;;;;;;;15.73;8.90;;;14.10;99.90;;;;;;5055846;28;20384;-53
2022/04/22 13:15:17;;;;;;;16.13;8.60;;;14.10;99.90;;;;;;5040197;28;20104;-51
2022/04/22 13:17:44;;;;;;;16.60;8.73;;;14.00;99.90;;;;;;5049602;28;20037;-52
2022/04/22 13:20:12;;;;;;;;;;;14.00;99.90;;;;;;5049840;28;20100;-51
2022/04/22 13:22:38;;;;;;;16.55;7.45;;;13.90;99.90;;;;;;5049725;28;19920;-52
2022/04/22 13:25:05;;;;;;;13.25;8.50;;;14.00;99.90;;;;;;5049469;28;20667;-52
2022/04/22 13:27:31;;;;;;;15.77;8.77;;;14.00;99.90;;;;;;5049438;28;20029;-52
2022/04/22 13:29:57;;;;;;;14.07;8.57;;;14.00;99.90;;;;;;5049231;28;20029;-50
2022/04/22 13:32:24;;;;;;;16.05;8.38;;;14.00;99.90;;;;;;5049312;28;20043;-51
2022/04/22 13:34:50;;;;;;;17.42;8.95;;;14.00;99.90;;;;;;5049043;28;20488;-51
2022/04/22 13:37:16;;;;;;;14.20;8.98;;;13.90;99.90;;;;;;5049429;28;20032;-51
2022/04/22 13:39:42;;;;;;;13.98;8.93;;;14.00;99.90;;;;;;5049170;28;20384;-53
2022/04/22 13:42:08;;;;;;;16.83;9.37;;;13.90;99.90;;;;;;5049140;28;20060;-51